Time;durP1;ratioP1;P1;durP2;ratioP2;P2;SDS_P1;SDS_P2;PMS_P1;PMS_P2;Temp;Humidity;BMP_temperature;BMP_pressure;BME280_temperature;BME280_humidity;BME280_pressure;Samples;Min_cycle;Max_cycle;Signal;HPM_P1;HPM_P2
2021/07/21 00:00:22;;;;;;;4.82;3.22;;;28.00;47.90;;;;;;5019903;28;20071;-70
2021/07/21 00:02:48;;;;;;;4.20;3.80;;;28.00;48.70;;;;;;5000485;28;20124;-70
2021/07/21 00:05:16;;;;;;;4.35;3.17;;;27.90;48.50;;;;;;5034590;28;20041;-70
2021/07/21 00:07:42;;;;;;;6.47;3.75;;;27.90;48.50;;;;;;5036697;28;20084;-70
2021/07/21 00:10:10;;;;;;;4.95;3.42;;;27.80;48.20;;;;;;5045010;28;20064;-70
2021/07/21 00:15:23;;;;;;;5.82;3.25;;;27.80;48.90;;;;;;5036552;28;20072;-70
2021/07/21 00:17:58;;;;;;;4.38;3.42;;;27.70;49.40;;;;;;5033914;28;20119;-70
2021/07/21 00:20:24;;;;;;;4.10;3.38;;;27.80;49.50;;;;;;5045680;28;20052;-69
2021/07/21 00:22:49;;;;;;;4.10;3.03;;;27.70;49.30;;;;;;5037158;28;20034;-70
2021/07/21 00:25:16;;;;;;;3.70;3.33;;;27.70;49.60;;;;;;5032961;28;20071;-70
2021/07/21 00:27:42;;;;;;;5.30;3.45;;;27.50;48.80;;;;;;5050235;28;20041;-70
2021/07/21 00:30:12;;;;;;;4.22;3.30;;;27.70;48.90;;;;;;5040785;28;20033;-70
2021/07/21 00:32:38;;;;;;;6.78;3.97;;;27.60;49.70;;;;;;5042049;28;20101;-69
2021/07/21 00:35:08;;;;;;;5.90;3.78;;;27.60;49.30;;;;;;5026072;28;20136;-70
2021/07/21 00:37:35;;;;;;;3.72;3.42;;;27.60;49.10;;;;;;5028350;28;20036;-70
2021/07/21 00:40:02;;;;;;;5.63;3.55;;;27.50;48.70;;;;;;5036799;28;20052;-70
2021/07/21 00:42:28;;;;;;;6.55;2.97;;;27.50;49.00;;;;;;5046791;28;20677;-70
2021/07/21 00:44:54;;;;;;;3.20;2.90;;;27.50;49.50;;;;;;5032552;28;20048;-70
2021/07/21 00:47:26;;;;;;;5.10;3.10;;;27.50;49.10;;;;;;5034702;28;20042;-70
2021/07/21 00:49:52;;;;;;;4.57;3.10;;;27.50;49.90;;;;;;5027189;28;20045;-70
2021/07/21 00:52:27;;;;;;;3.10;2.80;;;27.40;49.30;;;;;;5028965;28;20048;-70
2021/07/21 00:54:53;;;;;;;3.88;3.58;;;27.40;49.60;;;;;;5043123;28;20029;-69
2021/07/21 00:57:18;;;;;;;5.93;3.22;;;27.40;49.80;;;;;;5047618;28;20437;-70
2021/07/21 00:59:47;;;;;;;3.72;3.40;;;27.40;49.00;;;;;;5048342;28;20029;-69
2021/07/21 01:02:16;;;;;;;4.50;3.40;;;27.30;48.50;;;;;;5032941;28;20049;-70
2021/07/21 01:04:41;;;;;;;3.50;3.05;;;27.30;48.80;;;;;;5033223;28;20053;-69
2021/07/21 01:07:07;;;;;;;4.70;3.33;;;27.30;48.70;;;;;;5038596;28;20041;-69
2021/07/21 01:09:36;;;;;;;4.90;3.28;;;27.30;49.00;;;;;;5028346;28;20033;-70
2021/07/21 01:12:25;;;;;;;3.40;3.10;;;27.30;49.90;;;;;;5041333;28;20043;-70
2021/07/21 01:15:19;;;;;;;5.03;3.08;;;27.20;50.60;;;;;;5007534;28;20033;-70
2021/07/21 01:17:52;;;;;;;6.22;3.10;;;27.20;50.80;;;;;;5013513;28;20025;-68
2021/07/21 01:20:32;;;;;;;4.05;3.10;;;27.20;50.90;;;;;;5038319;28;20099;-70
2021/07/21 01:23:17;;;;;;;3.25;3.05;;;27.20;51.70;;;;;;5043011;28;20029;-70
2021/07/21 01:26:08;;;;;;;3.72;3.10;;;27.20;52.00;;;;;;4999357;28;20052;-69
2021/07/21 01:28:38;;;;;;;5.10;3.63;;;27.10;51.40;;;;;;5055706;28;20064;-70
2021/07/21 01:31:07;;;;;;;3.97;3.40;;;27.10;51.90;;;;;;5025742;28;20041;-69
2021/07/21 01:33:38;;;;;;;3.47;3.10;;;27.00;52.10;;;;;;5040434;28;20038;-70
2021/07/21 01:36:08;;;;;;;3.33;3.10;;;27.00;52.00;;;;;;5037078;28;20155;-70
2021/07/21 01:38:37;;;;;;;4.78;3.55;;;27.00;51.90;;;;;;5039322;28;20370;-71
2021/07/21 01:41:21;;;;;;;3.42;3.13;;;27.10;52.10;;;;;;5047273;28;20574;-70
2021/07/21 01:43:48;;;;;;;;;;;27.10;52.00;;;;;;5028077;28;20487;-71
2021/07/21 01:46:18;;;;;;;4.38;3.40;;;27.00;52.00;;;;;;5035447;28;20381;-70
2021/07/21 01:48:45;;;;;;;3.75;3.38;;;27.10;51.80;;;;;;5015409;28;20102;-70
2021/07/21 01:51:13;;;;;;;4.20;3.80;;;27.10;51.90;;;;;;5039952;28;20525;-70
2021/07/21 01:53:41;;;;;;;4.50;3.45;;;27.00;51.70;;;;;;5020669;28;20065;-70
2021/07/21 01:56:08;;;;;;;3.85;3.42;;;27.00;52.00;;;;;;5033382;28;20082;-70
2021/07/21 01:58:36;;;;;;;5.07;3.72;;;26.90;51.60;;;;;;5022445;28;20495;-71
2021/07/21 02:01:03;;;;;;;4.50;3.70;;;26.90;52.40;;;;;;5031176;28;20040;-70
2021/07/21 02:03:31;;;;;;;6.40;3.70;;;26.90;52.50;;;;;;5037458;28;20049;-71
2021/07/21 02:06:03;;;;;;;3.95;3.28;;;26.90;52.70;;;;;;5039413;28;20048;-70
2021/07/21 02:08:30;;;;;;;4.45;3.13;;;26.90;53.10;;;;;;5031025;28;20059;-71
2021/07/21 02:10:57;;;;;;;5.53;3.45;;;26.90;53.30;;;;;;5042351;28;20037;-70
2021/07/21 02:13:25;;;;;;;5.30;3.67;;;26.80;53.10;;;;;;5059637;28;20123;-71
2021/07/21 02:15:51;;;;;;;3.65;3.35;;;26.90;53.70;;;;;;5044704;28;20499;-71
2021/07/21 02:18:19;;;;;;;4.13;3.72;;;26.70;53.50;;;;;;5028464;28;20512;-70
2021/07/21 02:20:50;;;;;;;4.05;3.75;;;26.70;54.10;;;;;;5037031;28;20034;-70
2021/07/21 02:23:18;;;;;;;4.45;3.75;;;26.80;54.80;;;;;;5028075;28;20045;-70
2021/07/21 02:26:06;;;;;;;6.10;3.90;;;26.80;54.60;;;;;;5049757;28;20048;-70
2021/07/21 02:28:33;;;;;;;4.35;3.90;;;26.60;55.50;;;;;;5032124;28;20479;-70
2021/07/21 02:31:04;;;;;;;5.07;3.60;;;26.40;55.10;;;;;;5041020;28;20086;-70
2021/07/21 02:33:51;;;;;;;4.63;3.78;;;26.50;55.80;;;;;;5027198;28;20510;-71
2021/07/21 02:36:18;;;;;;;4.88;3.45;;;26.60;56.00;;;;;;5010147;28;20056;-70
2021/07/21 02:38:45;;;;;;;3.90;3.58;;;26.70;55.90;;;;;;5048067;28;20045;-70
2021/07/21 02:41:11;;;;;;;6.45;3.90;;;26.70;55.90;;;;;;5043097;28;20179;-71
2021/07/21 02:43:37;;;;;;;4.50;4.00;;;26.70;56.20;;;;;;5039900;28;20507;-70
2021/07/21 02:46:03;;;;;;;5.03;4.25;;;26.70;56.20;;;;;;5040589;28;20037;-68
2021/07/21 02:48:29;;;;;;;6.10;4.30;;;26.60;56.50;;;;;;5029893;28;20042;-68
2021/07/21 02:51:00;;;;;;;7.28;4.55;;;26.60;57.30;;;;;;5041004;28;21527;-71
2021/07/21 02:53:33;;;;;;;5.38;4.45;;;26.60;59.10;;;;;;5031365;28;20037;-69
2021/07/21 02:56:14;;;;;;;6.15;4.38;;;26.50;60.60;;;;;;5046232;28;20029;-70
2021/07/21 02:58:47;;;;;;;10.20;5.47;;;26.50;61.50;;;;;;5028854;28;20037;-69
2021/07/21 03:01:15;;;;;;;7.37;5.53;;;26.50;61.50;;;;;;5038481;28;20490;-70
2021/07/21 03:03:43;;;;;;;7.85;4.97;;;26.50;60.40;;;;;;5038155;28;20429;-69
2021/07/21 03:06:09;;;;;;;7.57;5.03;;;26.50;60.90;;;;;;5035874;28;20128;-69
2021/07/21 03:08:36;;;;;;;7.30;5.15;;;26.50;60.70;;;;;;5039064;28;20386;-59
2021/07/21 03:11:05;;;;;;;8.43;4.75;;;26.40;60.50;;;;;;5035178;28;20064;-71
2021/07/21 03:13:53;;;;;;;5.07;4.30;;;26.50;61.80;;;;;;5056320;28;20073;-70
2021/07/21 03:16:29;;;;;;;7.75;4.95;;;26.50;62.00;;;;;;5013667;28;20124;-69
2021/07/21 03:19:01;;;;;;;8.95;4.95;;;26.50;62.00;;;;;;5066136;28;20124;-69
2021/07/21 03:21:28;;;;;;;10.25;4.80;;;26.50;61.70;;;;;;5023634;28;20037;-69
2021/07/21 03:23:54;;;;;;;10.52;4.30;;;26.50;61.70;;;;;;5049054;28;20049;-69
2021/07/21 03:26:21;;;;;;;9.93;5.07;;;26.50;61.60;;;;;;5045144;28;20513;-70
2021/07/21 03:28:53;;;;;;;10.35;4.50;;;26.40;61.90;;;;;;5036468;28;20454;-69
2021/07/21 03:31:21;;;;;;;7.15;4.63;;;26.50;62.50;;;;;;5056128;28;20035;-70
2021/07/21 03:34:03;;;;;;;7.10;4.53;;;26.50;62.00;;;;;;5061232;28;20029;-69
2021/07/21 03:36:33;;;;;;;8.93;4.85;;;26.50;63.10;;;;;;5042071;28;20045;-70
2021/07/21 03:39:00;;;;;;;7.68;4.57;;;26.30;62.30;;;;;;5044233;28;20064;-70
2021/07/21 03:41:26;;;;;;;7.03;4.82;;;26.10;61.90;;;;;;5042348;28;20041;-69
2021/07/21 03:43:52;;;;;;;7.72;5.10;;;26.30;62.10;;;;;;5049693;28;20040;-70
2021/07/21 03:46:19;;;;;;;9.10;4.80;;;26.40;62.10;;;;;;5049687;28;20064;-69
2021/07/21 03:48:45;;;;;;;11.95;5.32;;;26.30;62.10;;;;;;5046762;28;20466;-69
2021/07/21 03:51:12;;;;;;;7.80;4.50;;;26.30;61.50;;;;;;5045535;28;20033;-70
2021/07/21 03:53:38;;;;;;;11.85;5.00;;;26.40;61.80;;;;;;5038912;28;20103;-69
2021/07/21 03:56:05;;;;;;;8.02;4.50;;;26.30;61.70;;;;;;5064749;28;20471;-69
2021/07/21 03:58:30;;;;;;;6.75;5.07;;;26.30;61.30;;;;;;5027433;28;20043;-69
2021/07/21 04:00:58;;;;;;;7.20;4.68;;;26.20;61.50;;;;;;5050431;28;20132;-72
2021/07/21 04:03:24;;;;;;;8.82;4.78;;;26.30;61.80;;;;;;5044841;28;20040;-68
2021/07/21 04:05:53;;;;;;;7.80;4.72;;;26.30;62.10;;;;;;5050255;28;20052;-72
2021/07/21 04:08:20;;;;;;;6.53;4.95;;;26.20;61.70;;;;;;5028895;28;20046;-69
2021/07/21 04:10:54;;;;;;;10.38;5.43;;;26.30;62.20;;;;;;5055260;28;20064;-69
2021/07/21 04:13:21;;;;;;;8.48;5.18;;;26.30;62.20;;;;;;5031159;28;20123;-69
2021/07/21 04:15:48;;;;;;;8.15;4.75;;;26.10;62.20;;;;;;5027284;28;20033;-70
2021/07/21 04:18:14;;;;;;;8.88;4.57;;;26.20;62.10;;;;;;5023243;28;20073;-69
2021/07/21 04:20:41;;;;;;;8.65;4.65;;;26.10;62.00;;;;;;5038170;28;20045;-69
2021/07/21 04:23:08;;;;;;;6.40;4.85;;;26.20;62.60;;;;;;5027229;28;20037;-69
2021/07/21 04:25:35;;;;;;;7.68;4.55;;;26.20;62.80;;;;;;5049225;28;20502;-68
2021/07/21 04:28:01;;;;;;;8.85;4.82;;;26.10;62.80;;;;;;5063287;28;20036;-69
2021/07/21 04:30:32;;;;;;;9.32;4.82;;;26.20;62.80;;;;;;5048560;28;20040;-69
2021/07/21 04:32:59;;;;;;;5.68;4.47;;;26.20;63.60;;;;;;5043635;28;20474;-70
2021/07/21 04:35:31;;;;;;;9.57;5.10;;;26.30;62.80;;;;;;5044571;28;20095;-70
2021/07/21 04:37:58;;;;;;;8.95;4.95;;;26.20;63.20;;;;;;5040135;28;20132;-69
2021/07/21 04:40:25;;;;;;;12.32;4.60;;;26.30;62.80;;;;;;5039939;28;20512;-70
2021/07/21 04:42:51;;;;;;;9.50;5.07;;;26.30;62.80;;;;;;5033869;28;20056;-70
2021/07/21 04:45:17;;;;;;;10.90;4.40;;;26.30;63.20;;;;;;5031091;28;20129;-70
2021/07/21 04:47:43;;;;;;;9.45;5.30;;;26.30;63.10;;;;;;5042407;28;20120;-70
2021/07/21 04:50:14;;;;;;;6.45;4.40;;;26.40;63.20;;;;;;5035671;28;20091;-69
2021/07/21 04:52:41;;;;;;;8.18;4.68;;;26.40;63.30;;;;;;5048684;28;20094;-69
2021/07/21 04:55:08;;;;;;;15.50;4.85;;;26.40;63.60;;;;;;5025431;28;20033;-67
2021/07/21 04:57:33;;;;;;;11.70;5.30;;;26.40;63.20;;;;;;5033327;28;20569;-69
2021/07/21 04:59:59;;;;;;;10.00;4.97;;;26.10;63.50;;;;;;5023532;28;20185;-69
2021/07/21 05:02:25;;;;;;;10.68;4.45;;;26.20;63.50;;;;;;5028194;28;20033;-69
2021/07/21 05:04:56;;;;;;;9.80;5.72;;;26.20;63.80;;;;;;5024607;28;20049;-69
2021/07/21 05:07:21;;;;;;;8.07;4.82;;;26.10;64.30;;;;;;5032510;28;20049;-69
2021/07/21 05:09:47;;;;;;;8.32;4.63;;;26.20;64.70;;;;;;5047505;28;20041;-70
2021/07/21 05:12:12;;;;;;;9.60;5.05;;;26.20;64.30;;;;;;5053897;28;20048;-70
2021/07/21 05:14:38;;;;;;;8.85;4.97;;;26.30;64.40;;;;;;5044943;28;20037;-69
2021/07/21 05:17:04;;;;;;;12.00;5.28;;;26.30;65.00;;;;;;5034011;28;20536;-69
2021/07/21 05:19:29;;;;;;;7.88;5.13;;;26.30;64.30;;;;;;5041925;28;20049;-69
2021/07/21 05:22:13;;;;;;;8.98;5.15;;;26.30;65.00;;;;;;5059077;28;20036;-69
2021/07/21 05:24:38;;;;;;;11.52;5.60;;;26.40;65.30;;;;;;5038649;28;20086;-68
2021/07/21 05:27:04;;;;;;;7.97;4.50;;;26.40;64.90;;;;;;5033690;28;20045;-69
2021/07/21 05:29:30;;;;;;;11.93;5.05;;;26.50;65.20;;;;;;5030460;28;20044;-69
2021/07/21 05:31:56;;;;;;;8.90;5.70;;;26.50;65.10;;;;;;5018748;28;20120;-69
2021/07/21 05:34:21;;;;;;;10.02;5.85;;;26.50;66.00;;;;;;5023494;28;20076;-70
2021/07/21 05:36:47;;;;;;;12.98;5.57;;;26.50;66.00;;;;;;5037462;28;20067;-69
2021/07/21 05:39:16;;;;;;;6.82;5.55;;;26.60;66.00;;;;;;5043693;28;20069;-69
2021/07/21 05:41:41;;;;;;;11.05;5.97;;;26.50;65.80;;;;;;5041983;28;20041;-69
2021/07/21 05:44:07;;;;;;;11.38;6.30;;;26.40;66.00;;;;;;5047438;28;20053;-68
2021/07/21 05:46:33;;;;;;;9.82;5.65;;;26.40;66.60;;;;;;5043784;28;20364;-70
2021/07/21 05:48:58;;;;;;;7.47;5.90;;;26.30;66.80;;;;;;5026949;28;20124;-70
2021/07/21 05:51:24;;;;;;;7.55;5.35;;;26.30;67.30;;;;;;5023971;28;20029;-71
2021/07/21 05:53:50;;;;;;;11.85;6.30;;;26.20;67.50;;;;;;5016949;28;20130;-70
2021/07/21 05:56:16;;;;;;;10.77;5.60;;;26.20;67.20;;;;;;5026537;28;20034;-70
2021/07/21 05:58:41;;;;;;;9.75;6.25;;;26.20;67.60;;;;;;5031318;28;20568;-68
2021/07/21 06:01:07;;;;;;;10.90;6.20;;;26.30;67.80;;;;;;5035569;28;20041;-68
2021/07/21 06:03:33;;;;;;;7.95;5.40;;;26.30;68.00;;;;;;5028780;28;20482;-70
2021/07/21 06:05:59;;;;;;;10.13;5.55;;;26.40;67.80;;;;;;5033388;28;20471;-70
2021/07/21 06:08:25;;;;;;;36.78;10.52;;;26.40;67.40;;;;;;5025361;28;20052;-70
2021/07/21 06:10:53;;;;;;;8.27;5.72;;;26.30;68.10;;;;;;5035734;28;20141;-69
2021/07/21 06:13:21;;;;;;;13.77;6.78;;;26.40;68.60;;;;;;5039246;28;20040;-70
2021/07/21 06:15:53;;;;;;;10.98;6.20;;;26.50;68.10;;;;;;5030120;28;20380;-69
2021/07/21 06:18:19;;;;;;;12.68;6.05;;;26.60;68.50;;;;;;5019937;28;20080;-69
2021/07/21 06:20:44;;;;;;;6.80;5.40;;;26.50;68.10;;;;;;5030822;28;20487;-68
2021/07/21 06:23:34;;;;;;;10.55;5.85;;;26.50;68.50;;;;;;5016599;28;20443;-69
2021/07/21 06:26:00;;;;;;;9.07;5.72;;;26.70;69.30;;;;;;5019689;28;20048;-70
2021/07/21 06:28:26;;;;;;;13.45;6.53;;;26.70;68.60;;;;;;5035091;28;20390;-70
2021/07/21 06:30:52;;;;;;;13.43;6.05;;;26.70;68.20;;;;;;5034923;28;20049;-69
2021/07/21 06:33:18;;;;;;;10.65;5.63;;;26.70;68.30;;;;;;5036098;28;20049;-70
2021/07/21 06:35:45;;;;;;;11.18;5.53;;;26.80;68.10;;;;;;5048470;28;20033;-69
2021/07/21 06:38:11;;;;;;;11.07;5.50;;;26.90;67.70;;;;;;5043283;28;20398;-70
2021/07/21 06:40:37;;;;;;;10.13;6.68;;;27.00;67.80;;;;;;5047489;28;20088;-71
2021/07/21 06:43:02;;;;;;;9.68;6.88;;;27.00;67.60;;;;;;5036109;28;20501;-71
2021/07/21 06:45:28;;;;;;;10.50;6.57;;;27.00;67.30;;;;;;5041751;28;20045;-71
2021/07/21 06:47:54;;;;;;;12.18;6.50;;;27.00;67.70;;;;;;5046469;28;20045;-70
2021/07/21 06:50:26;;;;;;;9.88;5.78;;;27.00;67.10;;;;;;5034354;28;20087;-71
2021/07/21 06:52:52;;;;;;;12.25;5.47;;;27.10;67.50;;;;;;5053178;28;20034;-70
2021/07/21 06:55:18;;;;;;;8.38;5.78;;;27.20;67.40;;;;;;5027210;28;20141;-70
2021/07/21 06:57:43;;;;;;;9.45;6.07;;;27.30;67.40;;;;;;5038614;28;20121;-70
2021/07/21 07:00:10;;;;;;;13.30;5.47;;;27.20;66.80;;;;;;5028236;28;20505;-70
2021/07/21 07:02:38;;;;;;;12.10;6.20;;;27.20;66.30;;;;;;5047521;28;20064;-71
2021/07/21 07:05:05;;;;;;;11.23;6.90;;;27.20;66.30;;;;;;5031201;28;20507;-71
2021/07/21 07:07:31;;;;;;;7.40;5.93;;;27.20;66.00;;;;;;5045726;28;20052;-71
2021/07/21 07:09:57;;;;;;;11.23;5.75;;;27.20;65.50;;;;;;5031284;28;20033;-71
2021/07/21 07:12:22;;;;;;;11.07;5.45;;;27.30;65.30;;;;;;5031892;28;20423;-71
2021/07/21 07:14:48;;;;;;;9.98;6.05;;;27.40;65.00;;;;;;5044875;28;20044;-71
2021/07/21 07:17:13;;;;;;;9.27;5.32;;;27.50;64.60;;;;;;5039974;28;20494;-70
2021/07/21 07:19:39;;;;;;;10.68;5.43;;;27.60;64.80;;;;;;5040005;28;20052;-70
2021/07/21 07:22:05;;;;;;;9.27;4.88;;;27.60;64.50;;;;;;5058875;28;20060;-71
2021/07/21 07:24:31;;;;;;;12.05;6.20;;;27.60;64.10;;;;;;5060804;28;20063;-71
2021/07/21 07:27:00;;;;;;;11.38;6.07;;;27.70;64.30;;;;;;5053860;28;20033;-71
2021/07/21 07:29:26;;;;;;;12.65;5.78;;;27.80;63.80;;;;;;5063660;28;20123;-71
2021/07/21 07:31:52;;;;;;;7.90;5.90;;;27.70;63.50;;;;;;5041356;28;20094;-70
2021/07/21 07:34:19;;;;;;;15.07;6.18;;;27.80;64.00;;;;;;5036257;28;20041;-72
2021/07/21 07:36:45;;;;;;;12.20;6.38;;;27.80;64.20;;;;;;5030766;28;20037;-71
2021/07/21 07:39:11;;;;;;;11.07;5.93;;;27.80;64.10;;;;;;5036734;28;20047;-71
2021/07/21 07:41:37;;;;;;;11.10;6.68;;;27.80;63.50;;;;;;5045881;28;20444;-72
2021/07/21 07:44:05;;;;;;;18.90;6.38;;;27.90;63.70;;;;;;5037155;28;20048;-72
2021/07/21 07:46:31;;;;;;;13.05;6.05;;;27.90;63.10;;;;;;5053184;28;20060;-69
2021/07/21 07:48:57;;;;;;;8.38;5.47;;;28.00;63.80;;;;;;5044066;28;20111;-71
2021/07/21 07:51:24;;;;;;;11.27;5.70;;;28.00;63.10;;;;;;5037528;28;20041;-71
2021/07/21 07:53:50;;;;;;;9.88;5.28;;;28.10;62.50;;;;;;5046726;28;20041;-71
2021/07/21 07:56:16;;;;;;;9.55;5.65;;;28.10;62.30;;;;;;5044538;28;20037;-68
2021/07/21 07:58:42;;;;;;;7.43;5.85;;;28.10;61.70;;;;;;5040618;28;20041;-70
2021/07/21 08:01:07;;;;;;;6.97;5.32;;;28.20;61.80;;;;;;5031317;28;20040;-71
2021/07/21 08:03:33;;;;;;;10.38;5.75;;;28.20;61.50;;;;;;5056389;28;20044;-70
2021/07/21 08:05:59;;;;;;;13.38;5.50;;;28.30;60.60;;;;;;5045193;28;20459;-70
2021/07/21 08:08:26;;;;;;;11.77;5.75;;;28.30;60.70;;;;;;5034804;28;20041;-70
2021/07/21 08:10:53;;;;;;;9.95;5.57;;;28.30;60.50;;;;;;5029835;28;20095;-69
2021/07/21 08:13:20;;;;;;;12.80;5.97;;;28.40;60.40;;;;;;5035400;28;20068;-69
2021/07/21 08:15:46;;;;;;;11.02;5.65;;;28.50;60.70;;;;;;5043257;28;20428;-69
2021/07/21 08:18:12;;;;;;;8.30;5.78;;;28.60;60.30;;;;;;5048597;28;20053;-68
2021/07/21 08:20:39;;;;;;;13.75;7.28;;;28.60;60.30;;;;;;5045698;28;20037;-69
2021/07/21 08:23:05;;;;;;;9.70;6.18;;;28.70;60.00;;;;;;5033354;28;20128;-70
2021/07/21 08:25:31;;;;;;;6.20;5.57;;;28.70;59.70;;;;;;5032152;28;20045;-70
2021/07/21 08:27:57;;;;;;;9.23;5.72;;;28.70;59.80;;;;;;5037256;28;20049;-69
2021/07/21 08:30:23;;;;;;;9.27;5.55;;;28.70;59.80;;;;;;5049217;28;20116;-69
2021/07/21 08:32:51;;;;;;;11.57;5.85;;;28.70;59.20;;;;;;5021236;28;20129;-69
2021/07/21 08:35:19;;;;;;;10.35;5.20;;;28.80;58.30;;;;;;5040156;28;20465;-70
2021/07/21 08:37:45;;;;;;;7.95;5.50;;;28.80;57.00;;;;;;5037112;28;20033;-69
2021/07/21 08:40:13;;;;;;;7.90;5.03;;;28.80;57.80;;;;;;5037935;28;20056;-69
2021/07/21 08:42:39;;;;;;;8.15;5.32;;;28.90;57.30;;;;;;5031145;28;20038;-70
2021/07/21 08:45:06;;;;;;;11.50;6.03;;;29.00;57.00;;;;;;5044172;28;20096;-69
2021/07/21 08:47:32;;;;;;;8.18;5.13;;;29.00;55.80;;;;;;5031309;28;20048;-69
2021/07/21 08:49:58;;;;;;;10.55;5.40;;;29.10;56.20;;;;;;5035016;28;20124;-70
2021/07/21 08:52:26;;;;;;;8.10;5.18;;;29.30;55.70;;;;;;5051233;28;20447;-70
2021/07/21 08:54:58;;;;;;;9.00;5.40;;;29.30;55.80;;;;;;5032854;28;20549;-70
2021/07/21 08:57:24;;;;;;;8.23;5.75;;;29.40;55.70;;;;;;5029731;28;20056;-70
2021/07/21 08:59:50;;;;;;;5.80;5.10;;;29.40;55.60;;;;;;5039766;28;20569;-70
2021/07/21 09:02:16;;;;;;;10.48;4.88;;;29.40;55.20;;;;;;5037868;28;20041;-70
2021/07/21 09:04:42;;;;;;;16.33;6.35;;;29.40;55.10;;;;;;5027726;28;20041;-70
2021/07/21 09:07:09;;;;;;;15.82;6.30;;;29.50;55.00;;;;;;5037630;28;20041;-71
2021/07/21 09:09:35;;;;;;;14.85;6.20;;;29.50;54.70;;;;;;5041305;28;20114;-70
2021/07/21 09:12:02;;;;;;;13.82;5.57;;;29.50;55.40;;;;;;5037396;28;20041;-70
2021/07/21 09:14:28;;;;;;;15.15;6.18;;;29.80;55.10;;;;;;5033669;28;20030;-70
2021/07/21 09:17:10;;;;;;;10.45;6.13;;;29.70;54.90;;;;;;5042148;28;20029;-70
2021/07/21 09:19:39;;;;;;;9.20;5.10;;;29.90;54.00;;;;;;5028804;28;20425;-71
2021/07/21 09:22:21;;;;;;;12.65;5.72;;;29.70;53.90;;;;;;5046221;28;20056;-71
2021/07/21 09:25:12;;;;;;;8.40;5.28;;;29.90;54.00;;;;;;5022859;28;20391;-70
2021/07/21 09:27:39;;;;;;;12.82;5.65;;;30.00;53.30;;;;;;5034295;28;20117;-71
2021/07/21 09:30:07;;;;;;;9.85;5.25;;;30.10;53.20;;;;;;5055182;28;20036;-71
2021/07/21 09:32:57;;;;;;;7.82;5.28;;;30.30;52.70;;;;;;5054856;28;20037;-71
2021/07/21 09:35:26;;;;;;;11.18;5.70;;;30.40;52.30;;;;;;5008203;28;20045;-71
2021/07/21 09:37:52;;;;;;;9.50;5.95;;;30.30;52.30;;;;;;5044113;28;20051;-71
2021/07/21 09:40:18;;;;;;;7.05;5.32;;;30.40;52.30;;;;;;5029658;28;20029;-70
2021/07/21 09:42:44;;;;;;;37.88;10.38;;;30.50;51.80;;;;;;5032175;28;20037;-70
2021/07/21 09:45:14;;;;;;;12.57;6.03;;;30.40;51.40;;;;;;5040410;28;20478;-71
2021/07/21 09:47:51;;;;;;;10.20;6.43;;;30.40;50.10;;;;;;5039055;28;20543;-70
2021/07/21 09:50:31;;;;;;;11.60;5.28;;;30.50;49.10;;;;;;4979512;28;20079;-71
2021/07/21 09:53:04;;;;;;;12.10;6.18;;;30.30;49.90;;;;;;5034666;28;20039;-71
2021/07/21 09:55:31;;;;;;;23.25;12.23;;;30.50;50.20;;;;;;5026478;28;20048;-71
2021/07/21 09:57:59;;;;;;;13.70;7.10;;;30.60;50.40;;;;;;5029642;28;20053;-71
2021/07/21 10:00:36;;;;;;;10.48;6.55;;;30.70;49.80;;;;;;5027828;28;20084;-71
2021/07/21 10:03:17;;;;;;;13.15;7.10;;;30.60;48.80;;;;;;5042368;28;20033;-71
2021/07/21 10:06:06;;;;;;;9.93;5.68;;;30.70;50.00;;;;;;5038582;28;20060;-71
2021/07/21 10:08:43;;;;;;;12.20;5.90;;;30.80;50.60;;;;;;5047126;28;20400;-71
2021/07/21 10:11:32;;;;;;;7.47;5.10;;;30.80;49.40;;;;;;5031328;28;20037;-71
2021/07/21 10:14:03;;;;;;;10.00;5.82;;;30.80;49.90;;;;;;4986214;28;20045;-71
2021/07/21 10:16:33;;;;;;;9.30;5.57;;;30.70;50.10;;;;;;5027957;28;20068;-71
2021/07/21 10:19:05;;;;;;;8.00;5.57;;;30.70;49.70;;;;;;5030202;28;20041;-70
2021/07/21 10:21:31;;;;;;;8.30;5.57;;;30.80;49.50;;;;;;5045072;28;20395;-71
2021/07/21 10:23:57;;;;;;;11.55;5.55;;;30.80;49.20;;;;;;5013169;28;20037;-71
2021/07/21 10:26:24;;;;;;;9.30;5.30;;;30.90;48.70;;;;;;5039416;28;20128;-71
2021/07/21 10:28:51;;;;;;;7.15;5.88;;;31.00;48.10;;;;;;5010478;28;20537;-70
2021/07/21 10:31:16;;;;;;;8.45;5.63;;;31.10;47.10;;;;;;5032446;28;20060;-71
2021/07/21 10:33:42;;;;;;;8.02;5.85;;;31.20;47.10;;;;;;5025991;28;20061;-69
2021/07/21 10:36:09;;;;;;;9.82;6.70;;;31.20;47.30;;;;;;5048089;28;20386;-71
2021/07/21 10:38:36;;;;;;;8.07;6.30;;;31.40;47.00;;;;;;5041951;28;20541;-71
2021/07/21 10:41:02;;;;;;;7.05;5.80;;;31.30;47.20;;;;;;5009679;28;20052;-71
2021/07/21 10:43:29;;;;;;;12.20;6.25;;;31.40;46.90;;;;;;5028998;28;20121;-70
2021/07/21 10:45:55;;;;;;;8.70;6.05;;;31.50;46.40;;;;;;5030102;28;20049;-71
2021/07/21 10:48:42;;;;;;;7.50;5.78;;;31.50;47.00;;;;;;5058644;28;20026;-71
2021/07/21 10:51:26;;;;;;;10.40;6.57;;;31.70;46.40;;;;;;5044379;28;20367;-72
2021/07/21 10:54:06;;;;;;;14.93;7.15;;;31.70;46.00;;;;;;5016605;28;20045;-72
2021/07/21 10:59:21;;;;;;;12.32;6.90;;;31.80;46.50;;;;;;5015767;28;20420;-71
2021/07/21 11:01:49;;;;;;;10.93;5.93;;;31.90;46.00;;;;;;5036770;28;20057;-72
2021/07/21 11:04:15;;;;;;;9.25;6.65;;;32.00;45.80;;;;;;5022457;28;20048;-72
2021/07/21 11:06:50;;;;;;;10.07;6.32;;;32.30;45.50;;;;;;5037026;28;20044;-72
2021/07/21 11:09:22;;;;;;;10.02;6.75;;;32.80;44.80;;;;;;5030314;28;20032;-72
2021/07/21 11:11:51;;;;;;;12.77;8.30;;;34.10;43.10;;;;;;5035173;28;20083;-73
2021/07/21 11:14:30;;;;;;;10.35;6.57;;;35.80;40.70;;;;;;5058584;28;20645;-72
2021/07/21 11:17:11;;;;;;;8.95;6.03;;;36.50;39.00;;;;;;5041682;28;20031;-74
2021/07/21 11:19:46;;;;;;;9.95;6.55;;;36.50;38.20;;;;;;5028893;28;20129;-70
2021/07/21 11:22:12;;;;;;;8.90;6.03;;;35.50;38.10;;;;;;5040434;28;20049;-67
2021/07/21 11:25:01;;;;;;;7.38;5.65;;;35.00;38.20;;;;;;5046300;28;20060;-72
2021/07/21 11:27:36;;;;;;;11.93;6.63;;;35.50;36.40;;;;;;5022343;28;20057;-72
2021/07/21 11:30:02;;;;;;;9.13;5.97;;;35.20;37.10;;;;;;5025915;28;20042;-72
2021/07/21 11:32:29;;;;;;;9.65;6.15;;;35.10;38.30;;;;;;5047296;28;20078;-72
2021/07/21 11:34:56;;;;;;;14.23;6.75;;;35.00;38.70;;;;;;5041505;28;20064;-72
2021/07/21 11:37:29;;;;;;;8.05;6.18;;;35.10;38.40;;;;;;5031043;28;20116;-72
2021/07/21 11:39:57;;;;;;;11.68;6.15;;;35.10;37.90;;;;;;5025491;28;20402;-72
2021/07/21 11:42:38;;;;;;;9.95;5.53;;;35.20;37.60;;;;;;5045298;28;20032;-73
2021/07/21 11:45:07;;;;;;;10.38;5.88;;;35.10;37.50;;;;;;5036967;28;20045;-73
2021/07/21 11:47:36;;;;;;;8.77;6.35;;;35.20;37.70;;;;;;5021274;28;20034;-74
2021/07/21 11:50:14;;;;;;;6.30;5.70;;;35.20;38.60;;;;;;5037601;28;23744;-73
2021/07/21 11:52:40;;;;;;;7.55;6.15;;;35.30;39.40;;;;;;5032842;28;20032;-74
2021/07/21 11:55:07;;;;;;;7.75;6.35;;;35.50;39.00;;;;;;5029586;28;20040;-73
2021/07/21 11:57:33;;;;;;;15.00;7.03;;;35.60;38.40;;;;;;5039881;28;20075;-74
2021/07/21 12:00:00;;;;;;;13.82;6.82;;;35.90;38.40;;;;;;5032360;28;20120;-74
2021/07/21 12:02:26;;;;;;;10.10;6.85;;;36.30;37.70;;;;;;5037240;28;20091;-74
2021/07/21 12:04:57;;;;;;;8.48;6.50;;;36.40;37.10;;;;;;5041031;28;20081;-75
2021/07/21 12:07:30;;;;;;;7.78;6.53;;;36.80;35.70;;;;;;5029718;28;20546;-74
2021/07/21 12:09:55;;;;;;;;;;;37.50;34.50;;;;;;5034677;28;20051;-74
2021/07/21 12:12:25;;;;;;;9.90;7.43;;;38.60;33.10;;;;;;5041924;28;19913;-74
2021/07/21 12:14:53;;;;;;;7.32;6.60;;;39.90;32.50;;;;;;5040317;28;20076;-74
2021/07/21 12:17:21;;;;;;;11.30;7.22;;;41.30;30.70;;;;;;5038472;28;20107;-73
2021/07/21 12:19:54;;;;;;;10.18;6.88;;;42.20;30.00;;;;;;5042158;28;20431;-70
2021/07/21 12:22:20;;;;;;;8.23;7.32;;;42.10;29.90;;;;;;5033930;28;20060;-74
2021/07/21 12:24:51;;;;;;;9.18;6.97;;;40.80;30.60;;;;;;5037634;28;20072;-75
2021/07/21 12:27:27;;;;;;;10.60;6.70;;;39.80;31.80;;;;;;5023678;28;20053;-76
2021/07/21 12:29:52;;;;;;;9.90;7.68;;;39.30;32.00;;;;;;5029013;28;20047;-75
2021/07/21 12:32:18;;;;;;;9.35;7.32;;;38.60;32.10;;;;;;5036782;28;20037;-75
2021/07/21 12:34:48;;;;;;;7.75;7.05;;;38.50;32.30;;;;;;5034742;28;20060;-74
2021/07/21 12:37:17;;;;;;;7.95;7.15;;;39.00;32.20;;;;;;5042147;28;20877;-74
2021/07/21 12:39:44;;;;;;;7.93;7.13;;;39.00;32.20;;;;;;5048415;28;20046;-73
2021/07/21 12:42:12;;;;;;;7.82;6.53;;;39.20;31.50;;;;;;5039276;28;20121;-76
2021/07/21 12:44:49;;;;;;;7.57;6.35;;;38.80;31.20;;;;;;5039053;28;20046;-75
2021/07/21 12:47:23;;;;;;;8.05;7.25;;;39.30;30.70;;;;;;5038398;28;20083;-75
2021/07/21 12:49:51;;;;;;;8.70;7.82;;;40.00;29.90;;;;;;5043182;28;20127;-75
2021/07/21 12:52:20;;;;;;;9.77;7.45;;;40.70;29.50;;;;;;5038947;28;20399;-77
2021/07/21 12:54:51;;;;;;;8.23;7.43;;;41.90;28.70;;;;;;5034920;28;20037;-76
2021/07/21 12:57:37;;;;;;;14.98;8.25;;;43.20;28.50;;;;;;5031441;28;20502;-76